sensor_id;sensor_type;location;lat;lon;timestamp;pressure;altitude;pressure_sealevel;temperature;humidity
23339;BME280;11841;49.368;20.962;2022-08-21T00:01:38;95246.84;;;18.49;89.22
23339;BME280;11841;49.368;20.962;2022-08-21T00:04:06;95250.34;;;18.45;89.62
23339;BME280;11841;49.368;20.962;2022-08-21T00:06:34;95243.66;;;18.37;90.04
23339;BME280;11841;49.368;20.962;2022-08-21T00:09:02;95236.41;;;18.38;90.04
23339;BME280;11841;49.368;20.962;2022-08-21T00:11:35;95235.31;;;18.39;90.36
23339;BME280;11841;49.368;20.962;2022-08-21T00:14:04;95239.09;;;18.38;89.96
23339;BME280;11841;49.368;20.962;2022-08-21T00:16:32;95237.47;;;18.37;89.88
23339;BME280;11841;49.368;20.962;2022-08-21T00:18:58;95242.59;;;18.33;90.15
23339;BME280;11841;49.368;20.962;2022-08-21T00:21:25;95246.38;;;18.32;90.53
23339;BME280;11841;49.368;20.962;2022-08-21T00:23:52;95244.47;;;18.28;90.51
23339;BME280;11841;49.368;20.962;2022-08-21T00:26:19;95240.50;;;18.25;91.33
23339;BME280;11841;49.368;20.962;2022-08-21T00:28:45;95249.34;;;18.26;91.38
23339;BME280;11841;49.368;20.962;2022-08-21T00:31:12;95241.03;;;18.22;91.77
23339;BME280;11841;49.368;20.962;2022-08-21T00:33:39;95241.56;;;18.19;92.30
23339;BME280;11841;49.368;20.962;2022-08-21T00:36:06;95242.09;;;18.21;92.76
23339;BME280;11841;49.368;20.962;2022-08-21T00:38:33;95242.38;;;18.20;93.02
23339;BME280;11841;49.368;20.962;2022-08-21T00:41:04;95243.47;;;18.19;93.46
23339;BME280;11841;49.368;20.962;2022-08-21T00:43:51;95239.97;;;18.18;93.08
23339;BME280;11841;49.368;20.962;2022-08-21T00:46:18;95239.22;;;18.07;94.85
23339;BME280;11841;49.368;20.962;2022-08-21T00:48:44;95230.88;;;18.09;94.98
23339;BME280;11841;49.368;20.962;2022-08-21T00:51:24;95226.34;;;18.09;94.94
23339;BME280;11841;49.368;20.962;2022-08-21T00:53:55;95231.13;;;18.13;94.39
23339;BME280;11841;49.368;20.962;2022-08-21T00:56:25;95216.13;;;18.12;94.12
23339;BME280;11841;49.368;20.962;2022-08-21T00:58:52;95219.63;;;18.12;94.54
23339;BME280;11841;49.368;20.962;2022-08-21T01:01:21;95215.31;;;18.11;95.03
23339;BME280;11841;49.368;20.962;2022-08-21T01:03:48;95209.44;;;18.09;95.43
23339;BME280;11841;49.368;20.962;2022-08-21T01:06:16;95220.41;;;18.13;94.91
23339;BME280;11841;49.368;20.962;2022-08-21T01:08:43;95222.31;;;18.12;94.82
23339;BME280;11841;49.368;20.962;2022-08-21T01:11:16;95220.16;;;18.09;94.79
23339;BME280;11841;49.368;20.962;2022-08-21T01:13:43;95213.22;;;18.03;96.52
23339;BME280;11841;49.368;20.962;2022-08-21T01:16:15;95215.91;;;18.03;96.24
23339;BME280;11841;49.368;20.962;2022-08-21T01:18:44;95211.09;;;18.00;97.23
23339;BME280;11841;49.368;20.962;2022-08-21T01:21:14;95220.72;;;18.01;96.73
23339;BME280;11841;49.368;20.962;2022-08-21T01:23:46;95214.28;;;18.07;96.20
23339;BME280;11841;49.368;20.962;2022-08-21T01:26:14;95212.66;;;18.06;95.69
23339;BME280;11841;49.368;20.962;2022-08-21T01:28:44;95215.91;;;18.03;95.47
23339;BME280;11841;49.368;20.962;2022-08-21T01:31:13;95213.22;;;18.03;95.43
23339;BME280;11841;49.368;20.962;2022-08-21T01:33:42;95202.50;;;18.03;95.79
23339;BME280;11841;49.368;20.962;2022-08-21T01:36:09;95206.00;;;18.03;95.77
23339;BME280;11841;49.368;20.962;2022-08-21T01:38:35;95206.50;;;18.00;96.25
23339;BME280;11841;49.368;20.962;2022-08-21T01:41:02;95207.31;;;18.01;95.62
23339;BME280;11841;49.368;20.962;2022-08-21T01:43:28;95200.63;;;18.03;94.98
23339;BME280;11841;49.368;20.962;2022-08-21T01:46:04;95205.72;;;18.00;94.54
23339;BME280;11841;49.368;20.962;2022-08-21T01:48:31;95204.91;;;17.99;94.63
23339;BME280;11841;49.368;20.962;2022-08-21T01:50:58;95195.03;;;17.95;95.71
23339;BME280;11841;49.368;20.962;2022-08-21T01:53:25;95195.31;;;17.88;96.72
23339;BME280;11841;49.368;20.962;2022-08-21T01:55:58;95201.75;;;17.87;97.13
23339;BME280;11841;49.368;20.962;2022-08-21T01:58:25;95191.56;;;17.89;96.27
23339;BME280;11841;49.368;20.962;2022-08-21T02:00:52;95199.34;;;17.86;95.60
23339;BME280;11841;49.368;20.962;2022-08-21T02:03:19;95191.56;;;17.84;95.67
23339;BME280;11841;49.368;20.962;2022-08-21T02:06:02;95191.03;;;17.82;94.99
23339;BME280;11841;49.368;20.962;2022-08-21T02:08:28;95187.53;;;17.82;94.86
23339;BME280;11841;49.368;20.962;2022-08-21T02:10:55;95192.13;;;17.81;94.49
23339;BME280;11841;49.368;20.962;2022-08-21T02:13:21;95192.38;;;17.85;93.87
23339;BME280;11841;49.368;20.962;2022-08-21T02:15:48;95176.81;;;17.82;93.31
23339;BME280;11841;49.368;20.962;2022-08-21T02:18:15;95173.63;;;17.80;93.39
23339;BME280;11841;49.368;20.962;2022-08-21T02:20:46;95174.16;;;17.77;93.42
23339;BME280;11841;49.368;20.962;2022-08-21T02:23:14;95184.63;;;17.73;94.20
23339;BME280;11841;49.368;20.962;2022-08-21T02:25:41;95180.06;;;17.74;94.41
23339;BME280;11841;49.368;20.962;2022-08-21T02:28:12;95176.31;;;17.75;94.41
23339;BME280;11841;49.368;20.962;2022-08-21T02:30:45;95175.28;;;17.71;94.94
23339;BME280;11841;49.368;20.962;2022-08-21T02:33:14;95170.47;;;17.68;94.81
23339;BME280;11841;49.368;20.962;2022-08-21T02:35:42;95180.66;;;17.66;94.82
23339;BME280;11841;49.368;20.962;2022-08-21T02:38:13;95183.88;;;17.63;94.70
23339;BME280;11841;49.368;20.962;2022-08-21T02:40:42;95184.13;;;17.66;94.17
23339;BME280;11841;49.368;20.962;2022-08-21T02:43:14;95189.22;;;17.68;93.86
23339;BME280;11841;49.368;20.962;2022-08-21T02:45:42;95176.59;;;17.68;93.49
23339;BME280;11841;49.368;20.962;2022-08-21T02:48:11;95184.38;;;17.70;93.20
23339;BME280;11841;49.368;20.962;2022-08-21T02:50:50;95179.00;;;17.70;92.73
23339;BME280;11841;49.368;20.962;2022-08-21T02:53:17;95187.88;;;17.65;93.85
23339;BME280;11841;49.368;20.962;2022-08-21T02:55:46;95183.31;;;17.66;93.86
23339;BME280;11841;49.368;20.962;2022-08-21T02:58:15;95189.78;;;17.55;94.67
23339;BME280;11841;49.368;20.962;2022-08-21T03:00:43;95188.72;;;17.56;94.56
23339;BME280;11841;49.368;20.962;2022-08-21T03:03:10;95187.63;;;17.57;93.89
23339;BME280;11841;49.368;20.962;2022-08-21T03:05:37;95183.91;;;17.53;93.02
23339;BME280;11841;49.368;20.962;2022-08-21T03:08:07;95192.19;;;17.51;92.60
23339;BME280;11841;49.368;20.962;2022-08-21T03:10:39;95188.75;;;17.46;92.47
23339;BME280;11841;49.368;20.962;2022-08-21T03:13:06;95189.50;;;17.41;92.30
23339;BME280;11841;49.368;20.962;2022-08-21T03:15:33;95182.84;;;17.39;92.27
23339;BME280;11841;49.368;20.962;2022-08-21T03:18:00;95180.44;;;17.37;92.31
23339;BME280;11841;49.368;20.962;2022-08-21T03:20:28;95181.78;;;17.30;93.15
23339;BME280;11841;49.368;20.962;2022-08-21T03:22:55;95180.72;;;17.31;93.37
23339;BME280;11841;49.368;20.962;2022-08-21T03:25:23;95180.69;;;17.36;93.29
23339;BME280;11841;49.368;20.962;2022-08-21T03:28:09;95183.38;;;17.36;93.01
23339;BME280;11841;49.368;20.962;2022-08-21T03:30:46;95169.44;;;17.39;93.15
23339;BME280;11841;49.368;20.962;2022-08-21T03:33:13;95172.94;;;17.39;93.42
23339;BME280;11841;49.368;20.962;2022-08-21T03:35:47;95178.53;;;17.38;93.27
23339;BME280;11841;49.368;20.962;2022-08-21T03:38:15;95177.75;;;17.32;93.98
23339;BME280;11841;49.368;20.962;2022-08-21T03:40:42;95178.53;;;17.33;93.88
23339;BME280;11841;49.368;20.962;2022-08-21T03:43:09;95185.53;;;17.34;93.78
23339;BME280;11841;49.368;20.962;2022-08-21T03:45:37;95184.97;;;17.37;93.70
23339;BME280;11841;49.368;20.962;2022-08-21T03:48:06;95182.56;;;17.35;93.87
23339;BME280;11841;49.368;20.962;2022-08-21T03:50:36;95183.38;;;17.36;94.21
23339;BME280;11841;49.368;20.962;2022-08-21T03:53:07;95182.56;;;17.35;95.06
23339;BME280;11841;49.368;20.962;2022-08-21T03:55:48;95182.56;;;17.35;95.08
23339;BME280;11841;49.368;20.962;2022-08-21T03:58:16;95184.72;;;17.33;95.99
23339;BME280;11841;49.368;20.962;2022-08-21T04:00:47;95181.78;;;17.30;96.85
23339;BME280;11841;49.368;20.962;2022-08-21T04:03:15;95176.94;;;17.32;96.54
23339;BME280;11841;49.368;20.962;2022-08-21T04:05:42;95181.50;;;17.36;96.79
23339;BME280;11841;49.368;20.962;2022-08-21T04:08:11;95184.44;;;17.40;96.77
23339;BME280;11841;49.368;20.962;2022-08-21T04:10:39;95182.56;;;17.40;97.05
23339;BME280;11841;49.368;20.962;2022-08-21T04:13:07;95181.75;;;17.40;96.97
23339;BME280;11841;49.368;20.962;2022-08-21T04:15:34;95188.72;;;17.41;97.42
23339;BME280;11841;49.368;20.962;2022-08-21T04:18:02;95187.66;;;17.47;97.61
23339;BME280;11841;49.368;20.962;2022-08-21T04:20:29;95192.47;;;17.50;97.35
23339;BME280;11841;49.368;20.962;2022-08-21T04:22:56;95198.38;;;17.47;98.35
23339;BME280;11841;49.368;20.962;2022-08-21T04:25:24;95196.78;;;17.51;98.45
23339;BME280;11841;49.368;20.962;2022-08-21T04:27:52;95195.13;;;17.55;98.65
23339;BME280;11841;49.368;20.962;2022-08-21T04:30:19;95197.81;;;17.55;99.23
23339;BME280;11841;49.368;20.962;2022-08-21T04:32:47;95204.78;;;17.61;99.32
23339;BME280;11841;49.368;20.962;2022-08-21T04:35:18;95203.16;;;17.65;98.90
23339;BME280;11841;49.368;20.962;2022-08-21T04:37:45;95196.72;;;17.66;98.67
23339;BME280;11841;49.368;20.962;2022-08-21T04:40:13;95203.66;;;17.72;98.67
23339;BME280;11841;49.368;20.962;2022-08-21T04:43:14;95209.84;;;17.72;98.52
23339;BME280;11841;49.368;20.962;2022-08-21T04:45:36;95214.41;;;17.72;98.98
23339;BME280;11841;49.368;20.962;2022-08-21T04:48:07;95214.94;;;17.74;99.36
23339;BME280;11841;49.368;20.962;2022-08-21T04:53:18;95212.78;;;17.81;99.77
23339;BME280;11841;49.368;20.962;2022-08-21T04:55:46;95206.31;;;17.82;100.00
23339;BME280;11841;49.368;20.962;2022-08-21T04:58:16;95207.41;;;17.81;100.00
23339;BME280;11841;49.368;20.962;2022-08-21T05:00:44;95206.03;;;17.83;100.00
23339;BME280;11841;49.368;20.962;2022-08-21T05:03:13;95209.56;;;17.79;100.00
23339;BME280;11841;49.368;20.962;2022-08-21T05:05:43;95203.91;;;17.80;100.00
23339;BME280;11841;49.368;20.962;2022-08-21T05:08:12;95210.59;;;17.88;100.00
23339;BME280;11841;49.368;20.962;2022-08-21T05:10:41;95219.16;;;17.95;100.00
23339;BME280;11841;49.368;20.962;2022-08-21T05:13:08;95220.19;;;17.99;100.00
23339;BME280;11841;49.368;20.962;2022-08-21T05:15:36;95216.19;;;18.01;100.00
23339;BME280;11841;49.368;20.962;2022-08-21T05:18:03;95213.25;;;17.98;100.00
23339;BME280;11841;49.368;20.962;2022-08-21T05:20:30;95214.31;;;17.97;100.00
23339;BME280;11841;49.368;20.962;2022-08-21T05:22:56;95227.72;;;17.97;100.00
23339;BME280;11841;49.368;20.962;2022-08-21T05:25:24;95219.69;;;18.02;100.00
23339;BME280;11841;49.368;20.962;2022-08-21T05:27:53;95223.38;;;18.11;100.00
23339;BME280;11841;49.368;20.962;2022-08-21T05:30:20;95222.81;;;18.14;100.00
23339;BME280;11841;49.368;20.962;2022-08-21T05:32:47;95230.34;;;18.17;100.00
23339;BME280;11841;49.368;20.962;2022-08-21T05:35:14;95224.94;;;18.22;100.00
23339;BME280;11841;49.368;20.962;2022-08-21T05:37:41;95225.19;;;18.26;100.00
23339;BME280;11841;49.368;20.962;2022-08-21T05:40:08;95221.41;;;18.32;100.00
23339;BME280;11841;49.368;20.962;2022-08-21T05:42:49;95226.22;;;18.35;100.00
23339;BME280;11841;49.368;20.962;2022-08-21T05:45:24;95225.94;;;18.36;100.00
23339;BME280;11841;49.368;20.962;2022-08-21T05:50:38;95222.44;;;18.46;100.00
23339;BME280;11841;49.368;20.962;2022-08-21T05:53:06;95221.06;;;18.48;100.00
23339;BME280;11841;49.368;20.962;2022-08-21T05:55:33;95222.66;;;18.54;100.00
23339;BME280;11841;49.368;20.962;2022-08-21T05:58:00;95214.56;;;18.59;100.00
23339;BME280;11841;49.368;20.962;2022-08-21T06:00:27;95219.63;;;18.66;100.00
23339;BME280;11841;49.368;20.962;2022-08-21T06:02:53;95221.22;;;18.67;100.00
23339;BME280;11841;49.368;20.962;2022-08-21T06:05:20;95208.56;;;18.72;100.00
23339;BME280;11841;49.368;20.962;2022-08-21T06:08:03;95216.03;;;18.80;100.00
23339;BME280;11841;49.368;20.962;2022-08-21T06:10:30;95219.47;;;18.86;100.00
23339;BME280;11841;49.368;20.962;2022-08-21T06:12:57;95212.47;;;18.90;100.00
23339;BME280;11841;49.368;20.962;2022-08-21T06:15:24;95211.06;;;18.97;100.00
23339;BME280;11841;49.368;20.962;2022-08-21T06:17:52;95212.13;;;19.01;100.00
23339;BME280;11841;49.368;20.962;2022-08-21T06:20:19;95208.56;;;19.06;100.00
23339;BME280;11841;49.368;20.962;2022-08-21T06:22:46;95203.16;;;19.11;100.00
23339;BME280;11841;49.368;20.962;2022-08-21T06:25:13;95207.13;;;19.18;100.00
23339;BME280;11841;49.368;20.962;2022-08-21T06:27:39;95202.78;;;19.27;100.00
23339;BME280;11841;49.368;20.962;2022-08-21T06:30:06;95202.19;;;19.36;100.00
23339;BME280;11841;49.368;20.962;2022-08-21T06:32:34;95204.53;;;19.42;100.00
23339;BME280;11841;49.368;20.962;2022-08-21T06:35:00;95206.88;;;19.49;100.00
23339;BME280;11841;49.368;20.962;2022-08-21T06:37:27;95196.31;;;19.57;100.00
23339;BME280;11841;49.368;20.962;2022-08-21T06:39:54;95190.31;;;19.65;100.00
23339;BME280;11841;49.368;20.962;2022-08-21T06:42:21;95207.72;;;19.73;100.00
23339;BME280;11841;49.368;20.962;2022-08-21T06:44:53;95208.19;;;19.80;100.00
23339;BME280;11841;49.368;20.962;2022-08-21T06:47:20;95211.81;;;19.89;100.00
23339;BME280;11841;49.368;20.962;2022-08-21T06:49:46;95202.63;;;19.95;100.00
23339;BME280;11841;49.368;20.962;2022-08-21T06:52:13;95208.16;;;20.03;100.00
23339;BME280;11841;49.368;20.962;2022-08-21T06:54:41;95195.41;;;20.14;100.00
23339;BME280;11841;49.368;20.962;2022-08-21T06:57:07;95205.84;;;20.20;100.00
23339;BME280;11841;49.368;20.962;2022-08-21T06:59:34;95206.59;;;20.26;100.00
23339;BME280;11841;49.368;20.962;2022-08-21T07:02:01;95207.81;;;20.33;100.00
23339;BME280;11841;49.368;20.962;2022-08-21T07:04:28;95202.66;;;20.37;100.00
23339;BME280;11841;49.368;20.962;2022-08-21T07:06:54;95199.09;;;20.41;100.00
23339;BME280;11841;49.368;20.962;2022-08-21T07:09:21;95200.91;;;20.46;100.00
23339;BME280;11841;49.368;20.962;2022-08-21T07:11:52;95201.38;;;20.53;100.00
23339;BME280;11841;49.368;20.962;2022-08-21T07:14:20;95196.69;;;20.59;100.00
23339;BME280;11841;49.368;20.962;2022-08-21T07:16:48;95194.22;;;20.62;100.00
23339;BME280;11841;49.368;20.962;2022-08-21T07:19:14;95196.84;;;20.67;100.00
23339;BME280;11841;49.368;20.962;2022-08-21T07:21:41;95188.38;;;20.74;100.00
23339;BME280;11841;49.368;20.962;2022-08-21T07:24:08;95187.00;;;20.76;100.00
23339;BME280;11841;49.368;20.962;2022-08-21T07:26:35;95194.50;;;20.79;100.00
23339;BME280;11841;49.368;20.962;2022-08-21T07:29:02;95191.50;;;20.81;100.00
23339;BME280;11841;49.368;20.962;2022-08-21T07:31:29;95187.97;;;20.85;100.00
23339;BME280;11841;49.368;20.962;2022-08-21T07:33:55;95195.75;;;20.87;99.93
23339;BME280;11841;49.368;20.962;2022-08-21T07:36:22;95195.44;;;20.88;99.07
23339;BME280;11841;49.368;20.962;2022-08-21T07:38:49;95186.78;;;20.91;98.78
23339;BME280;11841;49.368;20.962;2022-08-21T07:41:21;95185.66;;;20.92;98.89
23339;BME280;11841;49.368;20.962;2022-08-21T07:43:49;95194.25;;;20.94;98.59
23339;BME280;11841;49.368;20.962;2022-08-21T07:46:18;95191.00;;;20.97;98.27
23339;BME280;11841;49.368;20.962;2022-08-21T07:48:46;95193.91;;;21.01;98.18
23339;BME280;11841;49.368;20.962;2022-08-21T07:51:14;95191.44;;;21.04;97.78
23339;BME280;11841;49.368;20.962;2022-08-21T07:53:41;95191.22;;;21.01;97.56
23339;BME280;11841;49.368;20.962;2022-08-21T07:56:08;95199.25;;;21.06;97.35
23339;BME280;11841;49.368;20.962;2022-08-21T07:58:37;95195.44;;;21.07;97.35
23339;BME280;11841;49.368;20.962;2022-08-21T08:01:05;95195.66;;;21.10;97.41
23339;BME280;11841;49.368;20.962;2022-08-21T08:03:32;95193.47;;;21.12;97.17
23339;BME280;11841;49.368;20.962;2022-08-21T08:05:59;95192.88;;;21.15;97.06
23339;BME280;11841;49.368;20.962;2022-08-21T08:08:27;95189.09;;;21.16;96.94
23339;BME280;11841;49.368;20.962;2022-08-21T08:10:56;95189.28;;;21.20;96.51
23339;BME280;11841;49.368;20.962;2022-08-21T08:13:23;95198.72;;;21.22;96.74
23339;BME280;11841;49.368;20.962;2022-08-21T08:15:51;95189.50;;;21.23;96.65
23339;BME280;11841;49.368;20.962;2022-08-21T08:18:17;95194.31;;;21.26;96.11
23339;BME280;11841;49.368;20.962;2022-08-21T08:20:44;95193.81;;;21.24;95.99
23339;BME280;11841;49.368;20.962;2022-08-21T08:23:12;95199.41;;;21.28;96.35
23339;BME280;11841;49.368;20.962;2022-08-21T08:25:39;95194.50;;;21.30;96.32
23339;BME280;11841;49.368;20.962;2022-08-21T08:28:06;95188.72;;;21.36;96.58
23339;BME280;11841;49.368;20.962;2022-08-21T08:30:44;95190.25;;;21.42;95.90
23339;BME280;11841;49.368;20.962;2022-08-21T08:33:10;95178.38;;;21.43;96.21
23339;BME280;11841;49.368;20.962;2022-08-21T08:35:37;95181.47;;;21.50;95.57
23339;BME280;11841;49.368;20.962;2022-08-21T08:38:05;95172.50;;;21.55;94.92
23339;BME280;11841;49.368;20.962;2022-08-21T08:43:18;95166.72;;;21.62;94.91
23339;BME280;11841;49.368;20.962;2022-08-21T08:45:50;95163.41;;;21.65;94.23
23339;BME280;11841;49.368;20.962;2022-08-21T08:54:16;95185.31;;;21.77;93.69
23339;BME280;11841;49.368;20.962;2022-08-21T08:56:44;95182.25;;;21.83;93.71
23339;BME280;11841;49.368;20.962;2022-08-21T08:59:15;95175.84;;;21.93;92.69
23339;BME280;11841;49.368;20.962;2022-08-21T09:01:44;95168.66;;;22.02;93.07
23339;BME280;11841;49.368;20.962;2022-08-21T09:04:12;95174.66;;;22.12;92.53
23339;BME280;11841;49.368;20.962;2022-08-21T09:07:20;95167.41;;;22.21;92.29
23339;BME280;11841;49.368;20.962;2022-08-21T09:12:19;95165.81;;;22.34;91.09
23339;BME280;11841;49.368;20.962;2022-08-21T09:17:59;95166.41;;;22.44;90.86
23339;BME280;11841;49.368;20.962;2022-08-21T09:20:47;95157.38;;;22.49;90.29
23339;BME280;11841;49.368;20.962;2022-08-21T09:23:25;95165.16;;;22.50;89.41
23339;BME280;11841;49.368;20.962;2022-08-21T09:28:36;95161.31;;;22.56;89.81
23339;BME280;11841;49.368;20.962;2022-08-21T09:31:09;95165.28;;;22.59;89.66
23339;BME280;11841;49.368;20.962;2022-08-21T09:33:38;95166.38;;;22.58;89.59
23339;BME280;11841;49.368;20.962;2022-08-21T09:36:04;95154.97;;;22.61;89.25
23339;BME280;11841;49.368;20.962;2022-08-21T09:38:34;95155.16;;;22.64;89.75
23339;BME280;11841;49.368;20.962;2022-08-21T09:41:07;95156.63;;;22.70;89.16
23339;BME280;11841;49.368;20.962;2022-08-21T09:43:36;95160.94;;;22.71;89.08
23339;BME280;11841;49.368;20.962;2022-08-21T09:46:12;95169.75;;;22.77;89.52
23339;BME280;11841;49.368;20.962;2022-08-21T09:48:45;95158.13;;;22.77;88.94
23339;BME280;11841;49.368;20.962;2022-08-21T09:51:16;95160.53;;;22.78;88.55
23339;BME280;11841;49.368;20.962;2022-08-21T09:53:48;95158.31;;;22.80;88.88
23339;BME280;11841;49.368;20.962;2022-08-21T09:56:27;95156.13;;;22.82;89.07
23339;BME280;11841;49.368;20.962;2022-08-21T09:59:19;95155.50;;;22.85;88.05
23339;BME280;11841;49.368;20.962;2022-08-21T10:01:53;95160.09;;;22.85;87.72
23339;BME280;11841;49.368;20.962;2022-08-21T10:04:23;95159.59;;;22.83;87.67
23339;BME280;11841;49.368;20.962;2022-08-21T10:06:50;95154.19;;;22.83;87.86
23339;BME280;11841;49.368;20.962;2022-08-21T10:09:18;95153.28;;;22.87;87.76
23339;BME280;11841;49.368;20.962;2022-08-21T10:11:54;95162.34;;;22.91;87.90
23339;BME280;11841;49.368;20.962;2022-08-21T10:22:50;95144.38;;;23.09;86.84
23339;BME280;11841;49.368;20.962;2022-08-21T10:25:27;95153.41;;;23.04;86.93
23339;BME280;11841;49.368;20.962;2022-08-21T10:28:40;95159.00;;;23.08;87.09
23339;BME280;11841;49.368;20.962;2022-08-21T10:31:21;95156.00;;;23.09;87.31
23339;BME280;11841;49.368;20.962;2022-08-21T10:37:01;95157.38;;;23.07;87.25
23339;BME280;11841;49.368;20.962;2022-08-21T10:40:11;95158.31;;;23.02;87.11
23339;BME280;11841;49.368;20.962;2022-08-21T10:45:45;95160.03;;;22.98;87.47
23339;BME280;11841;49.368;20.962;2022-08-21T10:54:34;95162.47;;;22.86;87.54
23339;BME280;11841;49.368;20.962;2022-08-21T10:57:24;95173.09;;;22.83;87.69
23339;BME280;11841;49.368;20.962;2022-08-21T11:00:06;95174.34;;;22.77;87.84
23339;BME280;11841;49.368;20.962;2022-08-21T11:05:15;95172.91;;;22.79;88.04
23339;BME280;11841;49.368;20.962;2022-08-21T11:07:48;95180.56;;;22.77;87.55
23339;BME280;11841;49.368;20.962;2022-08-21T11:10:24;95171.69;;;22.63;87.87
23339;BME280;11841;49.368;20.962;2022-08-21T11:12:56;95169.47;;;22.65;88.66
23339;BME280;11841;49.368;20.962;2022-08-21T11:20:59;95166.16;;;22.68;87.46
23339;BME280;11841;49.368;20.962;2022-08-21T11:23:55;95175.19;;;22.63;88.31
23339;BME280;11841;49.368;20.962;2022-08-21T11:29:12;95170.75;;;22.67;87.80
23339;BME280;11841;49.368;20.962;2022-08-21T11:34:26;95159.16;;;22.67;87.41
23339;BME280;11841;49.368;20.962;2022-08-21T11:42:49;95161.25;;;22.70;87.86
23339;BME280;11841;49.368;20.962;2022-08-21T11:45:44;95147.25;;;22.68;87.88
23339;BME280;11841;49.368;20.962;2022-08-21T11:48:16;95145.53;;;22.72;87.54
23339;BME280;11841;49.368;20.962;2022-08-21T11:50:50;95143.31;;;22.74;87.36
23339;BME280;11841;49.368;20.962;2022-08-21T11:53:24;95143.00;;;22.75;87.54
23339;BME280;11841;49.368;20.962;2022-08-21T11:58:44;95138.28;;;22.81;87.21
23339;BME280;11841;49.368;20.962;2022-08-21T12:01:18;95143.06;;;22.84;87.19
23339;BME280;11841;49.368;20.962;2022-08-21T12:03:55;95142.59;;;22.82;87.33
23339;BME280;11841;49.368;20.962;2022-08-21T12:06:32;95140.47;;;22.79;87.29
23339;BME280;11841;49.368;20.962;2022-08-21T12:09:06;95132.69;;;22.77;87.62
23339;BME280;11841;49.368;20.962;2022-08-21T12:11:49;95129.97;;;22.77;87.58
23339;BME280;11841;49.368;20.962;2022-08-21T12:14:18;95126.19;;;22.79;87.67
23339;BME280;11841;49.368;20.962;2022-08-21T12:16:48;95132.88;;;22.81;87.52
23339;BME280;11841;49.368;20.962;2022-08-21T12:27:12;95147.88;;;22.87;87.56
23339;BME280;11841;49.368;20.962;2022-08-21T12:29:45;95150.28;;;22.89;87.54
23339;BME280;11841;49.368;20.962;2022-08-21T12:34:47;95136.44;;;22.90;87.69
23339;BME280;11841;49.368;20.962;2022-08-21T12:37:21;95120.72;;;22.92;87.44
23339;BME280;11841;49.368;20.962;2022-08-21T12:39:51;95115.81;;;22.94;86.95
23339;BME280;11841;49.368;20.962;2022-08-21T12:42:22;95101.81;;;22.92;87.12
23339;BME280;11841;49.368;20.962;2022-08-21T12:44:53;95095.28;;;22.93;87.13
23339;BME280;11841;49.368;20.962;2022-08-21T12:47:30;95090.38;;;22.95;86.75
23339;BME280;11841;49.368;20.962;2022-08-21T12:50:11;95096.91;;;22.94;86.99
23339;BME280;11841;49.368;20.962;2022-08-21T12:52:54;95089.25;;;22.96;87.06
23339;BME280;11841;49.368;20.962;2022-08-21T12:55:31;95101.69;;;22.97;87.19
23339;BME280;11841;49.368;20.962;2022-08-21T12:57:58;95100.56;;;22.98;87.62
23339;BME280;11841;49.368;20.962;2022-08-21T13:00:28;95096.75;;;22.99;87.24
23339;BME280;11841;49.368;20.962;2022-08-21T13:02:56;95112.81;;;22.96;86.87
23339;BME280;11841;49.368;20.962;2022-08-21T13:05:32;95130.41;;;22.93;86.99
23339;BME280;11841;49.368;20.962;2022-08-21T13:08:04;95155.88;;;22.92;87.19
23339;BME280;11841;49.368;20.962;2022-08-21T13:10:32;95150.47;;;22.92;87.68
23339;BME280;11841;49.368;20.962;2022-08-21T13:13:05;95139.03;;;22.95;87.62
23339;BME280;11841;49.368;20.962;2022-08-21T13:15:40;95123.44;;;22.92;87.77
23339;BME280;11841;49.368;20.962;2022-08-21T13:18:26;95133.94;;;22.94;87.73
23339;BME280;11841;49.368;20.962;2022-08-21T13:21:10;95132.81;;;22.95;87.99
23339;BME280;11841;49.368;20.962;2022-08-21T13:23:37;95145.56;;;22.94;87.90
23339;BME280;11841;49.368;20.962;2022-08-21T13:28:45;95159.66;;;22.91;87.96
23339;BME280;11841;49.368;20.962;2022-08-21T13:31:20;95152.66;;;22.90;88.34
23339;BME280;11841;49.368;20.962;2022-08-21T13:33:48;95136.94;;;22.92;88.39
23339;BME280;11841;49.368;20.962;2022-08-21T13:36:21;95125.81;;;22.94;88.39
23339;BME280;11841;49.368;20.962;2022-08-21T13:38:50;95125.00;;;22.93;88.57
23339;BME280;11841;49.368;20.962;2022-08-21T13:41:23;95142.34;;;22.92;88.74
23339;BME280;11841;49.368;20.962;2022-08-21T13:44:13;95140.25;;;22.89;88.99
23339;BME280;11841;49.368;20.962;2022-08-21T13:46:47;95140.09;;;22.86;89.39
23339;BME280;11841;49.368;20.962;2022-08-21T13:49:17;95145.00;;;22.84;89.60
23339;BME280;11841;49.368;20.962;2022-08-21T13:51:45;95146.38;;;22.81;90.10
23339;BME280;11841;49.368;20.962;2022-08-21T13:56:46;95152.53;;;22.73;89.91
23339;BME280;11841;49.368;20.962;2022-08-21T13:59:25;95149.34;;;22.71;89.76
23339;BME280;11841;49.368;20.962;2022-08-21T14:01:55;95153.78;;;22.67;90.63
23339;BME280;11841;49.368;20.962;2022-08-21T14:04:55;95147.97;;;22.60;91.24
23339;BME280;11841;49.368;20.962;2022-08-21T14:07:35;95155.59;;;22.58;91.26
23339;BME280;11841;49.368;20.962;2022-08-21T14:10:08;95159.09;;;22.58;91.35
23339;BME280;11841;49.368;20.962;2022-08-21T14:12:42;95150.19;;;22.58;91.28
23339;BME280;11841;49.368;20.962;2022-08-21T14:15:13;95149.69;;;22.56;91.55
23339;BME280;11841;49.368;20.962;2022-08-21T14:17:41;95149.19;;;22.54;91.51
23339;BME280;11841;49.368;20.962;2022-08-21T14:20:11;95155.66;;;22.53;91.51
23339;BME280;11841;49.368;20.962;2022-08-21T14:22:40;95160.56;;;22.51;91.76
23339;BME280;11841;49.368;20.962;2022-08-21T14:25:10;95153.59;;;22.50;92.13
23339;BME280;11841;49.368;20.962;2022-08-21T14:27:42;95154.66;;;22.49;92.40